This is the latest recevied weather packets stored in our database for station/object KQ4HEI. If no packets are shown the sender has not sent any weather packets the latest 10 day(s).
| Time | Temp. | Humidity | Pressure | Rain* | Wind** | Luminosity | Snow |
|---|---|---|---|---|---|---|---|
| 1777394491 | 28.33° C | 64% | 1019.6 hPa | 0 mm | - | - | - |
| 1777393892 | 28.33° C | 64% | 1019.6 hPa | 0 mm | - | - | - |
| 1777393292 | 27.22° C | 67% | 1019.5 hPa | 0 mm | - | - | - |
| 1777392692 | 27.22° C | 68% | 1019.3 hPa | 0 mm | - | - | - |
| 1777392091 | 26.67° C | 70% | 1019.5 hPa | 0 mm | - | - | - |
| 1777391491 | 26.11° C | 72% | 1019.5 hPa | 0 mm | - | - | - |
| 1777390892 | 26.67° C | 70% | 1019.5 hPa | 0 mm | - | - | - |
| 1777390292 | 26.11° C | 71% | 1019.6 hPa | 0 mm | - | - | - |
| 1777389936 | 26.67° C | 70% | 1019.4 hPa | 0 mm | - | - | - |
| 1777389691 | 26.67° C | 70% | 1019.4 hPa | 0 mm | - | - | - |
| 1777389091 | 25.56° C | 74% | 1019.6 hPa | 0 mm | - | - | - |
| 1777388492 | 25.56° C | 75% | 1019.6 hPa | 0 mm | - | - | - |
| 1777387892 | 25° C | 76% | 1019.6 hPa | 0 mm | - | - | - |
| 1777387292 | 24.44° C | 78% | 1019.4 hPa | 0 mm | - | - | - |
| 1777386691 | 24.44° C | 78% | 1019.7 hPa | 0 mm | - | - | - |
| 1777386185 | 23.89° C | 78% | 1019.6 hPa | 0 mm | - | - | - |
| 1777386092 | 23.89° C | 78% | 1019.6 hPa | 0 mm | - | - | - |
| 1777385491 | 23.89° C | 79% | 1019.7 hPa | 0 mm | - | - | - |
| 1777384892 | 23.33° C | 81% | 1019.7 hPa | 0 mm | - | - | - |
| 1777384291 | 22.78° C | 83% | 1019.7 hPa | 0 mm | - | - | - |
| 1777383692 | 22.22° C | 84% | 1019.6 hPa | 0 mm | - | - | - |
| 1777383091 | 21.67° C | 86% | 1019.6 hPa | 0 mm | - | - | - |
| 1777382492 | 20.56° C | 88% | 1019.4 hPa | 0 mm | - | - | - |
| 1777381892 | 20.56° C | 90% | 1019.3 hPa | 0 mm | - | - | - |
| 1777381292 | 20° C | 91% | 1019.2 hPa | 0 mm | - | - | - |
* Rain latest hour (hover to see other rain measurements)
** Current wind speed in m/s (hover to see current wind gust speed)